createdAt,value
2023-01-12T00:00:01.407Z,100.00
2023-01-12T00:02:29.625Z,100.00
2023-01-12T00:04:57.675Z,100.00
2023-01-12T00:07:25.624Z,100.00
2023-01-12T00:09:53.831Z,100.00
2023-01-12T00:12:21.912Z,100.00
2023-01-12T00:14:52.045Z,100.00
2023-01-12T00:17:20.168Z,100.00
2023-01-12T00:19:48.372Z,100.00
2023-01-12T00:22:18.522Z,100.00
2023-01-12T00:24:49.827Z,100.00
2023-01-12T00:27:20.340Z,100.00
2023-01-12T00:29:51.511Z,100.00
2023-01-12T00:32:22.070Z,100.00
2023-01-12T00:34:50.396Z,100.00
2023-01-12T00:37:20.709Z,100.00
2023-01-12T00:40:01.383Z,100.00
2023-01-12T00:42:47.883Z,100.00
2023-01-12T00:45:23.580Z,100.00
2023-01-12T00:47:54.663Z,100.00
2023-01-12T00:50:23.255Z,100.00
2023-01-12T00:52:51.419Z,100.00
2023-01-12T00:55:20.223Z,100.00
2023-01-12T00:57:48.780Z,100.00
2023-01-12T01:00:19.927Z,100.00
2023-01-12T01:02:48.290Z,100.00
2023-01-12T01:05:18.305Z,100.00
2023-01-12T01:07:48.120Z,100.00
2023-01-12T01:10:18.244Z,100.00
2023-01-12T01:12:47.365Z,100.00
2023-01-12T01:15:15.473Z,100.00
2023-01-12T01:17:45.068Z,100.00
2023-01-12T01:20:13.688Z,100.00
2023-01-12T01:22:41.792Z,100.00
2023-01-12T01:25:10.840Z,100.00
2023-01-12T01:27:39.477Z,100.00
2023-01-12T01:30:09.152Z,100.00
2023-01-12T01:32:37.229Z,100.00
2023-01-12T01:35:07.297Z,100.00
2023-01-12T01:37:35.647Z,100.00
2023-01-12T01:40:03.743Z,100.00
2023-01-12T01:42:32.528Z,100.00
2023-01-12T01:45:02.753Z,100.00
2023-01-12T01:47:37.628Z,100.00
2023-01-12T01:50:15.812Z,99.38
2023-01-12T01:52:49.878Z,99.72
2023-01-12T01:55:23.357Z,99.27
2023-01-12T01:57:56.179Z,99.57
2023-01-12T02:00:26.332Z,100.00
2023-01-12T02:02:56.013Z,100.00
2023-01-12T02:05:28.377Z,100.00
2023-01-12T02:08:00.181Z,100.00
2023-01-12T02:10:28.519Z,100.00
2023-01-12T02:13:14.192Z,100.00
2023-01-12T02:16:21.709Z,100.00
2023-01-12T02:19:14.692Z,100.00
2023-01-12T02:22:28.643Z,100.00
2023-01-12T02:25:21.246Z,100.00
2023-01-12T02:28:10.482Z,100.00
2023-01-12T02:31:16.542Z,100.00
2023-01-12T02:33:53.324Z,100.00
2023-01-12T02:36:31.954Z,100.00
2023-01-12T02:39:10.544Z,100.00
2023-01-12T02:42:02.686Z,99.72
2023-01-12T02:44:36.610Z,99.90
2023-01-12T02:47:15.440Z,100.00
2023-01-12T02:49:50.433Z,100.00
2023-01-12T02:52:23.246Z,100.00
2023-01-12T02:54:53.627Z,100.00
2023-01-12T02:57:25.016Z,100.00
2023-01-12T02:59:55.440Z,100.00
2023-01-12T03:02:27.886Z,100.00
2023-01-12T03:04:56.384Z,100.00
2023-01-12T03:07:42.579Z,100.00
2023-01-12T03:10:21.937Z,100.00
2023-01-12T03:12:52.305Z,100.00
2023-01-12T03:15:21.000Z,100.00
2023-01-12T03:17:59.433Z,100.00
2023-01-12T03:20:32.189Z,100.00
2023-01-12T03:23:07.586Z,100.00
2023-01-12T03:25:39.991Z,100.00
2023-01-12T03:28:09.808Z,100.00
2023-01-12T03:30:40.566Z,100.00
2023-01-12T03:33:10.954Z,100.00
2023-01-12T03:35:44.339Z,100.00
2023-01-12T03:38:20.840Z,100.00
2023-01-12T03:40:56.305Z,100.00
2023-01-12T03:43:32.132Z,100.00
2023-01-12T03:46:08.909Z,100.00
2023-01-12T03:48:44.007Z,100.00
2023-01-12T03:51:16.159Z,100.00
2023-01-12T03:53:46.722Z,100.00
2023-01-12T03:56:17.117Z,100.00
2023-01-12T03:58:46.142Z,100.00
2023-01-12T04:01:14.871Z,100.00
2023-01-12T04:03:45.215Z,100.00
2023-01-12T04:06:13.571Z,100.00
2023-01-12T04:08:42.084Z,100.00
2023-01-12T04:11:24.583Z,100.00
2023-01-12T04:13:53.103Z,100.00
2023-01-12T04:16:21.273Z,100.00
2023-01-12T04:18:52.263Z,100.00
2023-01-12T04:21:37.903Z,100.00
2023-01-12T04:24:06.426Z,100.00
2023-01-12T04:26:34.441Z,100.00
2023-01-12T04:29:02.567Z,100.00
2023-01-12T04:31:30.690Z,100.00
2023-01-12T04:34:00.315Z,100.00
2023-01-12T04:36:28.507Z,100.00
2023-01-12T04:38:56.508Z,100.00
2023-01-12T04:41:25.003Z,100.00
2023-01-12T04:43:53.685Z,100.00
2023-01-12T04:46:21.776Z,100.00
2023-01-12T04:48:49.749Z,100.00
2023-01-12T04:51:19.302Z,100.00
2023-01-12T04:53:48.237Z,100.00
2023-01-12T04:56:16.468Z,100.00
2023-01-12T04:58:44.732Z,100.00
2023-01-12T05:01:14.693Z,100.00
2023-01-12T05:03:44.167Z,100.00
2023-01-12T05:06:12.977Z,100.00
2023-01-12T05:08:59.797Z,100.00
2023-01-12T05:11:28.705Z,100.00
2023-01-12T05:13:57.638Z,100.00
2023-01-12T05:16:26.270Z,100.00
2023-01-12T05:18:54.526Z,100.00
2023-01-12T05:21:24.792Z,100.00
2023-01-12T05:23:54.382Z,100.00
2023-01-12T05:26:22.635Z,100.00
2023-01-12T05:28:51.192Z,100.00
2023-01-12T05:31:20.175Z,100.00
2023-01-12T05:33:49.339Z,100.00
2023-01-12T05:36:18.416Z,100.00
2023-01-12T05:38:47.234Z,100.00
2023-01-12T05:41:16.708Z,100.00
2023-01-12T05:43:53.275Z,100.00
2023-01-12T05:46:23.352Z,100.00
2023-01-12T05:48:54.126Z,100.00
2023-01-12T05:51:23.559Z,100.00
2023-01-12T05:53:51.966Z,100.00
2023-01-12T05:56:25.958Z,100.00
2023-01-12T05:58:55.156Z,100.00
2023-01-12T06:01:25.467Z,100.00
2023-01-12T06:03:55.577Z,100.00
2023-01-12T06:06:25.986Z,100.00
2023-01-12T06:08:55.117Z,100.00
2023-01-12T06:11:42.375Z,100.00
2023-01-12T06:14:11.464Z,100.00
2023-01-12T06:16:42.251Z,100.00
2023-01-12T06:19:13.110Z,100.00
2023-01-12T06:21:42.143Z,100.00
2023-01-12T06:24:10.598Z,100.00
2023-01-12T06:26:42.783Z,100.00
2023-01-12T06:29:11.711Z,100.00
2023-01-12T06:31:39.966Z,100.00
2023-01-12T06:34:09.028Z,100.00
2023-01-12T06:36:37.047Z,100.00
2023-01-12T06:39:06.069Z,100.00
2023-01-12T06:41:53.113Z,100.00
2023-01-12T06:44:24.744Z,100.00
2023-01-12T06:46:53.852Z,100.00
2023-01-12T06:49:21.874Z,100.00
2023-01-12T06:51:51.592Z,100.00
2023-01-12T06:54:19.889Z,100.00
2023-01-12T06:56:48.312Z,100.00
2023-01-12T06:59:16.502Z,99.87
2023-01-12T07:01:46.121Z,99.67
2023-01-12T07:04:14.283Z,100.00
2023-01-12T07:06:42.386Z,99.59
2023-01-12T07:09:10.532Z,99.17
2023-01-12T07:11:38.602Z,98.16
2023-01-12T07:14:09.065Z,98.67
2023-01-12T07:16:37.500Z,99.18
2023-01-12T07:19:07.025Z,99.86
2023-01-12T07:21:35.166Z,98.90
2023-01-12T07:24:03.586Z,98.47
2023-01-12T07:26:31.868Z,98.52
2023-01-12T07:29:00.193Z,99.04
2023-01-12T07:31:29.290Z,98.85
2023-01-12T07:33:57.365Z,98.99
2023-01-12T07:36:26.982Z,98.87
2023-01-12T07:38:55.174Z,98.24
2023-01-12T07:41:40.982Z,98.64
2023-01-12T07:44:09.111Z,98.40
2023-01-12T07:46:37.293Z,99.39
2023-01-12T07:49:05.487Z,99.58
2023-01-12T07:51:34.963Z,98.79
2023-01-12T07:54:03.222Z,96.78
2023-01-12T07:56:31.353Z,96.34
2023-01-12T07:58:59.453Z,96.16
2023-01-12T08:01:27.656Z,96.79
2023-01-12T08:03:56.298Z,95.78
2023-01-12T08:06:24.920Z,95.73
2023-01-12T08:08:55.592Z,96.41
2023-01-12T08:11:24.256Z,96.65
2023-01-12T08:13:55.418Z,95.61
2023-01-12T08:16:28.701Z,95.04
2023-01-12T08:19:02.099Z,94.58
2023-01-12T08:21:35.453Z,93.48
2023-01-12T08:24:10.637Z,93.96
2023-01-12T08:26:44.752Z,94.04
2023-01-12T08:29:17.960Z,93.68
2023-01-12T08:31:46.102Z,93.30
2023-01-12T08:34:14.449Z,93.27
2023-01-12T08:36:44.695Z,93.22
2023-01-12T08:39:14.347Z,93.41
2023-01-12T08:41:42.733Z,91.88
2023-01-12T08:44:11.660Z,91.03
2023-01-12T08:46:41.560Z,90.25
2023-01-12T08:49:16.950Z,90.44
2023-01-12T08:51:47.093Z,90.17
2023-01-12T08:54:18.876Z,89.37
2023-01-12T08:56:47.554Z,89.71
2023-01-12T08:59:16.455Z,88.91
2023-01-12T09:01:45.658Z,88.81
2023-01-12T09:04:14.115Z,88.45
2023-01-12T09:06:45.263Z,87.66
2023-01-12T09:09:15.717Z,85.81
2023-01-12T09:11:46.328Z,84.97
2023-01-12T09:14:15.806Z,85.07
2023-01-12T09:16:44.838Z,85.36
2023-01-12T09:19:13.892Z,84.44
2023-01-12T09:21:43.700Z,85.07
2023-01-12T09:24:14.854Z,85.16
2023-01-12T09:26:46.068Z,84.12
2023-01-12T09:29:15.545Z,81.73
2023-01-12T09:31:45.984Z,81.26
2023-01-12T09:34:14.480Z,81.89
2023-01-12T09:36:43.025Z,80.51
2023-01-12T09:39:32.530Z,81.04
2023-01-12T09:42:19.763Z,81.67
2023-01-12T09:45:08.638Z,81.42
2023-01-12T09:47:40.537Z,82.21
2023-01-12T09:50:12.930Z,81.10
2023-01-12T09:52:46.482Z,81.86
2023-01-12T09:55:19.022Z,82.70
2023-01-12T09:58:03.658Z,81.66
2023-01-12T10:00:32.521Z,81.22
2023-01-12T10:03:11.907Z,82.60
2023-01-12T10:05:46.716Z,81.92
2023-01-12T10:08:19.528Z,81.24
2023-01-12T10:11:02.431Z,79.21
2023-01-12T10:13:58.179Z,77.13
2023-01-12T10:16:35.166Z,77.47
2023-01-12T10:19:09.416Z,78.21
2023-01-12T10:21:37.911Z,77.80
2023-01-12T10:24:12.958Z,78.17
2023-01-12T10:26:44.631Z,78.13
2023-01-12T10:29:14.272Z,76.77
2023-01-12T10:31:42.764Z,76.62
2023-01-12T10:34:13.177Z,77.79
2023-01-12T10:36:45.618Z,77.68
2023-01-12T10:39:34.609Z,78.28
2023-01-12T10:42:43.972Z,79.09
2023-01-12T10:45:18.841Z,79.84
2023-01-12T10:47:48.021Z,78.53
2023-01-12T10:50:24.863Z,77.96
2023-01-12T10:52:57.289Z,78.19
2023-01-12T10:55:30.399Z,77.92
2023-01-12T10:57:59.056Z,77.38
2023-01-12T11:00:30.597Z,77.51
2023-01-12T11:02:59.093Z,78.17
2023-01-12T11:05:31.398Z,78.24
2023-01-12T11:08:00.112Z,77.89
2023-01-12T11:10:30.660Z,79.33
2023-01-12T11:13:00.648Z,79.48
2023-01-12T11:15:34.045Z,79.55
2023-01-12T11:18:33.439Z,79.85
2023-01-12T11:21:05.568Z,79.82
2023-01-12T11:23:40.352Z,80.49
2023-01-12T11:26:18.603Z,79.24
2023-01-12T11:28:50.082Z,78.24
2023-01-12T11:31:23.861Z,78.68
2023-01-12T11:33:57.246Z,78.29
2023-01-12T11:36:30.320Z,78.70
2023-01-12T11:39:04.636Z,77.83
2023-01-12T11:41:39.495Z,78.09
2023-01-12T11:44:16.774Z,77.86
2023-01-12T11:46:50.733Z,77.22
2023-01-12T11:49:24.578Z,78.29
2023-01-12T11:51:57.037Z,77.92
2023-01-12T11:54:27.260Z,79.24
2023-01-12T11:57:23.544Z,79.00
2023-01-12T12:00:04.747Z,78.17
2023-01-12T12:02:38.238Z,78.34
2023-01-12T12:05:21.633Z,77.97
2023-01-12T12:08:06.482Z,77.57
2023-01-12T12:10:45.092Z,78.06
2023-01-12T12:13:28.130Z,78.25
2023-01-12T12:16:11.309Z,78.86
2023-01-12T12:18:58.762Z,79.19
2023-01-12T12:21:42.915Z,79.02
2023-01-12T12:24:27.059Z,79.08
2023-01-12T12:27:04.789Z,79.72
2023-01-12T12:29:55.334Z,79.73
2023-01-12T12:32:33.319Z,79.97
2023-01-12T12:35:29.099Z,80.99
2023-01-12T12:38:10.421Z,80.54
2023-01-12T12:41:09.832Z,79.28
2023-01-12T12:43:56.267Z,80.24
2023-01-12T12:46:34.402Z,80.12
2023-01-12T12:49:06.824Z,80.70
2023-01-12T12:51:37.707Z,81.18
2023-01-12T12:54:08.743Z,80.40
2023-01-12T12:56:38.959Z,80.48
2023-01-12T12:59:07.343Z,80.83
2023-01-12T13:01:42.962Z,80.37
2023-01-12T13:04:15.211Z,81.23
2023-01-12T13:06:48.208Z,80.38
2023-01-12T13:09:38.260Z,80.66
2023-01-12T13:12:33.538Z,81.39
2023-01-12T13:15:21.373Z,81.92
2023-01-12T13:17:51.046Z,81.52
2023-01-12T13:21:05.678Z,81.70
2023-01-12T13:23:50.705Z,81.64
2023-01-12T13:26:27.329Z,81.98
2023-01-12T13:29:32.638Z,81.76
2023-01-12T13:32:21.620Z,82.35
2023-01-12T13:34:51.189Z,82.87
2023-01-12T13:37:29.088Z,81.83
2023-01-12T13:40:05.417Z,82.38
2023-01-12T13:42:52.523Z,82.70
2023-01-12T13:45:23.349Z,83.31
2023-01-12T13:47:54.193Z,83.93
2023-01-12T13:50:25.976Z,82.89
2023-01-12T13:52:59.035Z,83.26
2023-01-12T13:55:29.535Z,83.11
2023-01-12T13:58:00.348Z,84.16
2023-01-12T14:00:29.752Z,83.86
2023-01-12T14:02:58.590Z,84.28
2023-01-12T14:05:54.648Z,84.71
2023-01-12T14:08:51.676Z,85.61
2023-01-12T14:11:41.429Z,87.80
2023-01-12T14:14:45.651Z,87.63
2023-01-12T14:17:36.299Z,87.74
2023-01-12T14:20:04.633Z,88.94
2023-01-12T14:22:34.177Z,89.01
2023-01-12T14:25:16.318Z,88.04
2023-01-12T14:27:57.059Z,89.43
2023-01-12T14:30:27.086Z,90.30
2023-01-12T14:32:56.074Z,90.97
2023-01-12T14:35:25.881Z,90.93
2023-01-12T14:37:58.484Z,91.78
2023-01-12T14:40:30.614Z,92.40
2023-01-12T14:43:16.236Z,93.05
2023-01-12T15:00:00.034Z,91.97
2023-01-12T15:02:34.250Z,91.06
2023-01-12T15:05:05.928Z,90.80
2023-01-12T15:07:36.834Z,89.61
2023-01-12T15:10:21.371Z,89.52
2023-01-12T15:12:53.851Z,89.64
2023-01-12T15:15:25.940Z,89.83
2023-01-12T15:18:12.978Z,90.39
2023-01-12T15:21:02.146Z,90.71
2023-01-12T15:23:50.620Z,91.68
2023-01-12T15:26:19.021Z,91.65
2023-01-12T15:28:47.392Z,92.06
2023-01-12T15:31:25.126Z,92.50
2023-01-12T15:33:53.690Z,93.26
2023-01-12T15:36:22.511Z,93.96
2023-01-12T15:38:51.047Z,94.27
2023-01-12T15:41:44.087Z,93.98
2023-01-12T15:44:14.214Z,94.14
2023-01-12T15:46:44.300Z,94.39
2023-01-12T15:49:14.457Z,92.81
2023-01-12T15:51:43.975Z,93.28
2023-01-12T15:54:13.985Z,92.95
2023-01-12T15:56:42.763Z,91.37
2023-01-12T15:59:10.964Z,90.67
2023-01-12T16:01:42.794Z,89.02
2023-01-12T16:04:41.379Z,89.14
2023-01-12T16:07:05.483Z,88.75
2023-01-12T16:09:33.770Z,88.35
2023-01-12T16:12:02.076Z,87.65
2023-01-12T16:14:30.220Z,87.71
2023-01-12T16:16:58.738Z,87.62
2023-01-12T16:19:28.369Z,87.45
2023-01-12T16:21:56.708Z,87.19
2023-01-12T16:24:27.098Z,87.73
2023-01-12T16:26:55.379Z,87.47
2023-01-12T16:29:24.318Z,87.88
2023-01-12T16:31:52.576Z,87.52
2023-01-12T16:34:23.640Z,87.08
2023-01-12T16:36:53.338Z,87.62
2023-01-12T16:39:21.456Z,88.28
2023-01-12T16:41:49.985Z,87.81
2023-01-12T16:44:18.110Z,87.66
2023-01-12T16:46:48.694Z,87.76
2023-01-12T16:49:16.708Z,87.26
2023-01-12T16:51:44.728Z,87.84
2023-01-12T16:54:14.395Z,88.58
2023-01-12T16:56:42.669Z,88.51
2023-01-12T16:59:10.731Z,88.58
2023-01-12T17:01:39.090Z,88.23
2023-01-12T17:04:07.468Z,88.66
2023-01-12T17:06:35.735Z,88.68
2023-01-12T17:09:05.152Z,89.12
2023-01-12T17:11:35.583Z,88.90
2023-01-12T17:14:23.021Z,88.65
2023-01-12T17:16:52.686Z,87.90
2023-01-12T17:19:21.673Z,88.19
2023-01-12T17:21:50.930Z,88.52
2023-01-12T17:24:20.267Z,88.47
2023-01-12T17:26:53.215Z,89.02
2023-01-12T17:29:21.944Z,89.06
2023-01-12T17:31:50.265Z,88.54
2023-01-12T17:34:18.784Z,89.08
2023-01-12T17:36:46.958Z,89.58
2023-01-12T17:39:15.814Z,89.64
2023-01-12T17:42:01.353Z,89.74
2023-01-12T17:44:31.766Z,90.57
2023-01-12T17:47:00.097Z,90.98
2023-01-12T17:49:28.491Z,91.02
2023-01-12T17:51:56.736Z,90.58
2023-01-12T17:54:25.728Z,90.90
2023-01-12T17:56:54.754Z,90.50
2023-01-12T17:59:24.344Z,91.00
2023-01-12T18:01:55.372Z,90.56
2023-01-12T18:04:23.603Z,90.44
2023-01-12T18:06:51.734Z,91.03
2023-01-12T18:09:20.179Z,91.08
2023-01-12T18:11:48.303Z,91.46
2023-01-12T18:14:16.685Z,90.63
2023-01-12T18:16:44.780Z,90.85
2023-01-12T18:19:15.071Z,90.86
2023-01-12T18:21:43.140Z,90.95
2023-01-12T18:24:11.268Z,90.58
2023-01-12T18:26:39.398Z,90.61
2023-01-12T18:29:07.871Z,90.76
2023-01-12T18:31:37.735Z,90.94
2023-01-12T18:34:07.857Z,90.95
2023-01-12T18:36:40.235Z,90.84
2023-01-12T18:39:09.684Z,90.83
2023-01-12T18:41:55.704Z,90.94
2023-01-12T18:44:23.936Z,90.88
2023-01-12T18:47:09.403Z,90.61
2023-01-12T18:49:38.886Z,90.65
2023-01-12T18:52:30.195Z,90.12
2023-01-12T18:54:59.030Z,90.00
2023-01-12T18:57:28.617Z,90.31
2023-01-12T19:00:00.288Z,89.07
2023-01-12T19:02:29.987Z,89.30
2023-01-12T19:05:12.070Z,89.24
2023-01-12T19:08:02.321Z,89.46
2023-01-12T19:10:31.140Z,89.45
2023-01-12T19:13:13.569Z,89.56
2023-01-12T19:16:00.118Z,89.68
2023-01-12T19:18:28.982Z,89.90
2023-01-12T19:21:22.550Z,89.82
2023-01-12T19:24:09.438Z,90.01
2023-01-12T19:26:54.207Z,90.41
2023-01-12T19:29:22.639Z,90.72
2023-01-12T19:31:50.867Z,91.09
2023-01-12T19:34:19.261Z,90.83
2023-01-12T19:36:47.518Z,90.93
2023-01-12T19:39:25.505Z,91.10
2023-01-12T19:42:10.985Z,91.91
2023-01-12T19:44:39.392Z,92.75
2023-01-12T19:47:07.615Z,93.48
2023-01-12T19:49:35.787Z,94.08
2023-01-12T19:52:04.016Z,94.63
2023-01-12T19:54:33.627Z,95.47
2023-01-12T19:57:01.747Z,96.11
2023-01-12T19:59:30.024Z,96.94
2023-01-12T20:01:58.454Z,97.86
2023-01-12T20:04:26.632Z,97.96
2023-01-12T20:06:56.370Z,98.30
2023-01-12T20:09:24.747Z,97.98
2023-01-12T20:11:55.215Z,98.42
2023-01-12T20:14:23.498Z,99.33
2023-01-12T20:16:51.680Z,98.99
2023-01-12T20:19:20.660Z,99.19
2023-01-12T20:21:48.800Z,99.48
2023-01-12T20:24:17.562Z,99.39
2023-01-12T20:26:46.051Z,99.93
2023-01-12T20:29:15.759Z,100.00
2023-01-12T20:31:44.445Z,100.00
2023-01-12T20:34:13.165Z,99.62
2023-01-12T20:36:41.611Z,99.21
2023-01-12T20:39:13.153Z,99.42
2023-01-12T20:41:42.074Z,99.81
2023-01-12T20:44:16.530Z,100.00
2023-01-12T20:46:44.866Z,99.98
2023-01-12T20:49:13.568Z,99.08
2023-01-12T20:51:41.817Z,98.52
2023-01-12T20:54:10.946Z,98.82
2023-01-12T20:56:39.080Z,98.20
2023-01-12T20:59:07.765Z,98.52
2023-01-12T21:01:37.583Z,97.92
2023-01-12T21:04:05.813Z,98.06
2023-01-12T21:06:34.263Z,98.00
2023-01-12T21:09:02.344Z,97.80
2023-01-12T21:11:30.502Z,97.87
2023-01-12T21:13:59.364Z,97.93
2023-01-12T21:16:27.909Z,98.54
2023-01-12T21:18:57.560Z,98.09
2023-01-12T21:21:26.032Z,97.85
2023-01-12T21:23:54.241Z,97.84
2023-01-12T21:26:22.382Z,97.25
2023-01-12T21:28:50.708Z,97.49
2023-01-12T21:31:18.882Z,96.39
2023-01-12T21:33:47.104Z,96.44
2023-01-12T21:36:18.261Z,96.29
2023-01-12T21:38:50.847Z,96.52
2023-01-12T21:41:19.070Z,95.78
2023-01-12T21:43:49.481Z,95.76
2023-01-12T21:46:18.645Z,95.31
2023-01-12T21:48:47.018Z,95.25
2023-01-12T21:51:18.163Z,95.34
2023-01-12T21:53:46.351Z,94.54
2023-01-12T21:56:14.784Z,94.21
2023-01-12T21:58:42.865Z,94.27
2023-01-12T22:01:12.707Z,94.30
2023-01-12T22:03:41.370Z,93.11
2023-01-12T22:06:12.485Z,93.64
2023-01-12T22:08:43.206Z,93.45
2023-01-12T22:11:12.836Z,93.40
2023-01-12T22:13:41.275Z,93.33
2023-01-12T22:16:11.796Z,93.07
2023-01-12T22:18:41.092Z,93.55
2023-01-12T22:21:10.775Z,93.63
2023-01-12T22:23:39.605Z,94.17
2023-01-12T22:26:10.856Z,94.07
2023-01-12T22:28:41.661Z,94.51
2023-01-12T22:31:11.485Z,95.03
2023-01-12T22:33:40.100Z,95.37
2023-01-12T22:36:08.839Z,96.40
2023-01-12T22:38:36.835Z,96.66
2023-01-12T22:41:06.093Z,97.16
2023-01-12T22:43:40.687Z,97.71
2023-01-12T22:46:15.732Z,99.31
2023-01-12T22:48:44.167Z,98.88
2023-01-12T22:51:12.432Z,99.60
2023-01-12T22:53:40.537Z,99.57
2023-01-12T22:56:09.334Z,100.00
2023-01-12T22:58:38.913Z,99.68
2023-01-12T23:01:08.796Z,100.00
2023-01-12T23:03:37.940Z,99.58
2023-01-12T23:06:07.466Z,99.28
2023-01-12T23:08:35.513Z,98.87
2023-01-12T23:11:05.109Z,98.86
2023-01-12T23:13:33.286Z,97.87
2023-01-12T23:16:06.646Z,97.82
2023-01-12T23:18:36.887Z,97.77
2023-01-12T23:21:11.001Z,97.00
2023-01-12T23:23:39.609Z,95.80
2023-01-12T23:26:10.101Z,95.24
2023-01-12T23:28:41.571Z,95.11
2023-01-12T23:31:13.159Z,94.88
2023-01-12T23:33:43.148Z,94.16
2023-01-12T23:36:13.630Z,93.99
2023-01-12T23:38:42.082Z,93.90
2023-01-12T23:41:15.531Z,93.64
2023-01-12T23:43:44.214Z,94.34
2023-01-12T23:46:14.168Z,93.81
2023-01-12T23:48:42.437Z,93.86
2023-01-12T23:51:10.944Z,93.89
2023-01-12T23:53:39.061Z,93.54
2023-01-12T23:56:09.540Z,93.52
2023-01-12T23:58:38.182Z,93.73
